UPS144 KEWR-KSDF
Flight info
| Callsign | UPS144 |
|---|---|
| Flight time | 1h 47m |
| Altitude | 40000 |
| Route | PARKE J6 HVQ Q68 YOCKY LEDDL1 |
| Aircraft | B772/H-VGDW/C |
Departure
| Time | 2026-05-07 00:21 |
|---|---|
| Airport | Newark Liberty International Airport (KEWR) |
Arrival
| Time | 2026-05-07 02:08 |
|---|---|
| Airport | Louisville Muhammad Ali International Airport (KSDF) |
| Time | Latitude | Longitude | Altitude | Speed | Heading |
|---|---|---|---|---|---|
| 2026-05-06 23:20 | 40.68238 | -74.18695 | 32 ft | 0 kts | 296° |
| 2026-05-07 00:09 | 40.68236 | -74.18688 | 32 ft | 4 kts | 295° |
| 2026-05-07 00:09 | 40.68225 | -74.18655 | 32 ft | 4 kts | 292° |
| 2026-05-07 00:10 | 40.68215 | -74.18632 | 32 ft | 3 kts | 330° |
| 2026-05-07 00:10 | 40.68198 | -74.18621 | 32 ft | 4 kts | 7° |
| 2026-05-07 00:10 | 40.68175 | -74.18632 | 32 ft | 4 kts | 26° |
| 2026-05-07 00:10 | 40.68168 | -74.18636 | 32 ft | 0 kts | 26° |
| 2026-05-07 00:14 | 40.68180 | -74.18629 | 32 ft | 12 kts | 26° |
| 2026-05-07 00:14 | 40.68252 | -74.18583 | 32 ft | 0 kts | 26° |
| 2026-05-07 00:14 | 40.68286 | -74.18561 | 32 ft | 11 kts | 26° |
| 2026-05-07 00:15 | 40.68336 | -74.18528 | 32 ft | 8 kts | 26° |
| 2026-05-07 00:15 | 40.68389 | -74.18479 | 32 ft | 12 kts | 67° |
| 2026-05-07 00:15 | 40.68379 | -74.18373 | 32 ft | 12 kts | 105° |
| 2026-05-07 00:15 | 40.68357 | -74.18264 | 32 ft | 13 kts | 102° |
| 2026-05-07 00:16 | 40.68346 | -74.18132 | 32 ft | 16 kts | 88° |
| 2026-05-07 00:16 | 40.68360 | -74.17981 | 32 ft | 18 kts | 79° |
| 2026-05-07 00:16 | 40.68352 | -74.17827 | 32 ft | 17 kts | 104° |
| 2026-05-07 00:16 | 40.68366 | -74.17696 | 32 ft | 17 kts | 56° |
| 2026-05-07 00:17 | 40.68466 | -74.17553 | 32 ft | 25 kts | 41° |
| 2026-05-07 00:17 | 40.68623 | -74.17416 | 32 ft | 26 kts | 25° |
| 2026-05-07 00:17 | 40.68781 | -74.17320 | 32 ft | 23 kts | 25° |
| 2026-05-07 00:17 | 40.68920 | -74.17230 | 32 ft | 21 kts | 26° |
| 2026-05-07 00:18 | 40.69047 | -74.17147 | 32 ft | 20 kts | 26° |
| 2026-05-07 00:18 | 40.69167 | -74.17069 | 32 ft | 19 kts | 26° |
| 2026-05-07 00:18 | 40.69282 | -74.16996 | 32 ft | 18 kts | 25° |
| 2026-05-07 00:18 | 40.69391 | -74.16928 | 32 ft | 17 kts | 25° |
| 2026-05-07 00:19 | 40.69500 | -74.16859 | 32 ft | 19 kts | 26° |
| 2026-05-07 00:19 | 40.69637 | -74.16772 | 32 ft | 23 kts | 25° |
| 2026-05-07 00:19 | 40.69776 | -74.16685 | 32 ft | 21 kts | 25° |
| 2026-05-07 00:19 | 40.69858 | -74.16632 | 32 ft | 12 kts | 28° |
| 2026-05-07 00:20 | 40.69924 | -74.16588 | 32 ft | 14 kts | 25° |
| 2026-05-07 00:20 | 40.70008 | -74.16537 | 32 ft | 13 kts | 26° |
| 2026-05-07 00:20 | 40.70070 | -74.16444 | 32 ft | 17 kts | 86° |
| 2026-05-07 00:20 | 40.70019 | -74.16375 | 32 ft | 16 kts | 185° |
| 2026-05-07 00:21 | 40.69976 | -74.16392 | 32 ft | 0 kts | 206° |
| 2026-05-07 00:21 | 40.69748 | -74.16539 | 32 ft | 93 kts | 206° |
| 2026-05-07 00:21 | 40.68842 | -74.17108 | 175 ft | 183 kts | 206° |
| 2026-05-07 00:21 | 40.67566 | -74.17833 | 989 ft | 217 kts | 196° |
| 2026-05-07 00:22 | 40.65940 | -74.17892 | 1955 ft | 247 kts | 179° |
| 2026-05-07 00:22 | 40.64182 | -74.17719 | 2379 ft | 259 kts | 177° |
| 2026-05-07 00:22 | 40.62377 | -74.17534 | 2481 ft | 260 kts | 181° |
| 2026-05-07 00:22 | 40.60631 | -74.17969 | 2528 ft | 256 kts | 206° |
| 2026-05-07 00:23 | 40.59301 | -74.19524 | 3270 ft | 261 kts | 236° |
| 2026-05-07 00:23 | 40.58741 | -74.21734 | 4693 ft | 258 kts | 261° |
| 2026-05-07 00:23 | 40.58748 | -74.24071 | 4987 ft | 255 kts | 273° |
| 2026-05-07 00:23 | 40.58836 | -74.26392 | 5003 ft | 254 kts | 269° |
| 2026-05-07 00:24 | 40.58791 | -74.28704 | 5107 ft | 251 kts | 267° |
| 2026-05-07 00:24 | 40.58738 | -74.31023 | 5603 ft | 259 kts | 267° |
| 2026-05-07 00:24 | 40.58675 | -74.33387 | 7075 ft | 257 kts | 267° |
| 2026-05-07 00:24 | 40.58618 | -74.35723 | 8671 ft | 252 kts | 267° |
| 2026-05-07 00:25 | 40.58572 | -74.38055 | 9812 ft | 260 kts | 267° |
| 2026-05-07 00:25 | 40.58539 | -74.40455 | 10216 ft | 266 kts | 268° |
| 2026-05-07 00:25 | 40.58654 | -74.42957 | 11153 ft | 283 kts | 275° |
| 2026-05-07 00:25 | 40.59008 | -74.45589 | 12050 ft | 301 kts | 277° |
| 2026-05-07 00:26 | 40.59411 | -74.48331 | 12946 ft | 318 kts | 277° |
| 2026-05-07 00:26 | 40.59858 | -74.51255 | 13863 ft | 333 kts | 278° |
| 2026-05-07 00:26 | 40.60324 | -74.54298 | 14874 ft | 345 kts | 278° |
| 2026-05-07 00:26 | 40.60801 | -74.57428 | 15983 ft | 352 kts | 278° |
| 2026-05-07 00:27 | 40.61287 | -74.60615 | 16746 ft | 357 kts | 278° |
| 2026-05-07 00:27 | 40.61774 | -74.63831 | 16984 ft | 359 kts | 278° |
| 2026-05-07 00:27 | 40.62269 | -74.67050 | 16992 ft | 359 kts | 279° |
| 2026-05-07 00:27 | 40.62777 | -74.70274 | 16993 ft | 360 kts | 279° |
| 2026-05-07 00:28 | 40.63277 | -74.73509 | 16990 ft | 360 kts | 278° |
| 2026-05-07 00:28 | 40.63763 | -74.76739 | 16993 ft | 360 kts | 278° |
| 2026-05-07 00:28 | 40.64246 | -74.79987 | 17303 ft | 364 kts | 278° |
| 2026-05-07 00:28 | 40.64729 | -74.83245 | 18622 ft | 363 kts | 278° |
| 2026-05-07 00:29 | 40.65211 | -74.86518 | 19765 ft | 365 kts | 278° |
| 2026-05-07 00:29 | 40.65695 | -74.89807 | 20893 ft | 367 kts | 278° |
| 2026-05-07 00:30 | 40.67160 | -74.99772 | 23894 ft | 375 kts | 278° |
| 2026-05-07 00:30 | 40.67609 | -75.03159 | 24790 ft | 375 kts | 273° |
| 2026-05-07 00:30 | 40.67490 | -75.06577 | 25650 ft | 377 kts | 259° |
| 2026-05-07 00:30 | 40.66686 | -75.09890 | 26458 ft | 384 kts | 250° |
| 2026-05-07 00:31 | 40.65591 | -75.13112 | 27278 ft | 387 kts | 248° |
| 2026-05-07 00:31 | 40.64375 | -75.16292 | 28139 ft | 391 kts | 246° |
| 2026-05-07 00:31 | 40.63035 | -75.19429 | 28959 ft | 395 kts | 244° |
| 2026-05-07 00:31 | 40.61614 | -75.22533 | 29738 ft | 398 kts | 244° |
| 2026-05-07 00:32 | 40.60152 | -75.25651 | 30459 ft | 400 kts | 244° |
| 2026-05-07 00:32 | 40.58707 | -75.28745 | 31424 ft | 394 kts | 244° |
| 2026-05-07 00:32 | 40.57302 | -75.31796 | 32461 ft | 386 kts | 245° |
| 2026-05-07 00:32 | 40.55923 | -75.34805 | 33355 ft | 382 kts | 245° |
| 2026-05-07 00:33 | 40.54556 | -75.37779 | 34145 ft | 379 kts | 245° |
| 2026-05-07 00:33 | 40.53196 | -75.40746 | 34783 ft | 379 kts | 246° |
| 2026-05-07 00:33 | 40.51844 | -75.43714 | 35388 ft | 378 kts | 246° |
| 2026-05-07 00:33 | 40.50481 | -75.46683 | 35938 ft | 378 kts | 246° |
| 2026-05-07 00:34 | 40.49118 | -75.49639 | 36466 ft | 378 kts | 246° |
| 2026-05-07 00:34 | 40.47772 | -75.52550 | 36952 ft | 378 kts | 246° |
| 2026-05-07 00:34 | 40.46404 | -75.55507 | 37389 ft | 379 kts | 246° |
| 2026-05-07 00:34 | 40.45032 | -75.58469 | 37867 ft | 378 kts | 246° |
| 2026-05-07 00:35 | 40.43664 | -75.61421 | 38272 ft | 379 kts | 246° |
| 2026-05-07 00:35 | 40.42299 | -75.64373 | 38718 ft | 377 kts | 246° |
| 2026-05-07 00:35 | 40.40946 | -75.67310 | 39201 ft | 376 kts | 246° |
| 2026-05-07 00:35 | 40.39583 | -75.70251 | 39453 ft | 379 kts | 246° |
| 2026-05-07 00:36 | 40.38207 | -75.73209 | 39775 ft | 380 kts | 246° |
| 2026-05-07 00:36 | 40.36829 | -75.76167 | 39852 ft | 380 kts | 246° |
| 2026-05-07 00:36 | 40.34075 | -75.82074 | 39847 ft | 379 kts | 246° |
| 2026-05-07 00:37 | 40.31323 | -75.87968 | 39843 ft | 379 kts | 246° |
| 2026-05-07 00:37 | 40.28574 | -75.93850 | 39856 ft | 378 kts | 247° |
| 2026-05-07 00:38 | 40.25853 | -75.99751 | 39859 ft | 378 kts | 246° |
| 2026-05-07 00:38 | 40.23120 | -76.05583 | 39855 ft | 378 kts | 246° |
| 2026-05-07 00:39 | 40.20359 | -76.11439 | 39851 ft | 378 kts | 246° |
| 2026-05-07 00:39 | 40.17600 | -76.17280 | 39846 ft | 378 kts | 246° |
| 2026-05-07 00:40 | 40.14835 | -76.23128 | 39842 ft | 378 kts | 246° |
| 2026-05-07 00:40 | 40.12073 | -76.28967 | 39840 ft | 378 kts | 246° |
| 2026-05-07 00:41 | 40.09365 | -76.34853 | 39840 ft | 377 kts | 247° |
| 2026-05-07 00:41 | 40.06663 | -76.40715 | 39841 ft | 377 kts | 246° |
| 2026-05-07 00:42 | 40.03950 | -76.46574 | 39848 ft | 377 kts | 246° |
| 2026-05-07 00:42 | 40.01243 | -76.52447 | 39853 ft | 378 kts | 246° |
| 2026-05-07 00:43 | 39.98519 | -76.58317 | 39856 ft | 378 kts | 246° |
| 2026-05-07 00:43 | 39.95788 | -76.64176 | 39859 ft | 378 kts | 246° |
| 2026-05-07 00:44 | 39.93072 | -76.70000 | 39860 ft | 378 kts | 246° |
| 2026-05-07 00:44 | 39.90335 | -76.75856 | 39861 ft | 378 kts | 246° |
| 2026-05-07 00:45 | 39.87595 | -76.81697 | 39862 ft | 378 kts | 246° |
| 2026-05-07 00:45 | 39.84861 | -76.87534 | 39862 ft | 377 kts | 247° |
| 2026-05-07 00:46 | 39.82625 | -76.92389 | 39865 ft | 376 kts | 246° |
| 2026-05-07 00:46 | 39.79457 | -76.99144 | 39872 ft | 376 kts | 246° |
| 2026-05-07 00:47 | 39.76717 | -77.04944 | 39880 ft | 376 kts | 246° |
| 2026-05-07 00:47 | 39.74420 | -77.09795 | 39885 ft | 376 kts | 246° |
| 2026-05-07 00:48 | 39.71695 | -77.15544 | 39888 ft | 376 kts | 246° |
| 2026-05-07 00:48 | 39.68949 | -77.21334 | 39889 ft | 376 kts | 246° |
| 2026-05-07 00:49 | 39.66208 | -77.27105 | 39888 ft | 375 kts | 246° |
| 2026-05-07 00:49 | 39.63460 | -77.32866 | 39886 ft | 375 kts | 246° |
| 2026-05-07 00:50 | 39.60730 | -77.38580 | 39883 ft | 374 kts | 246° |
| 2026-05-07 00:50 | 39.57985 | -77.44317 | 39884 ft | 374 kts | 246° |
| 2026-05-07 00:51 | 39.55250 | -77.50045 | 39887 ft | 373 kts | 246° |
| 2026-05-07 00:51 | 39.52558 | -77.55789 | 39891 ft | 373 kts | 246° |
| 2026-05-07 00:52 | 39.49828 | -77.61498 | 39894 ft | 373 kts | 246° |
| 2026-05-07 00:52 | 39.47081 | -77.67200 | 39895 ft | 373 kts | 246° |
| 2026-05-07 00:53 | 39.44328 | -77.72899 | 39895 ft | 373 kts | 246° |
| 2026-05-07 00:53 | 39.41575 | -77.78593 | 39898 ft | 373 kts | 246° |
| 2026-05-07 00:54 | 39.38821 | -77.84287 | 39895 ft | 373 kts | 246° |
| 2026-05-07 00:54 | 39.36296 | -77.90115 | 39893 ft | 371 kts | 250° |
| 2026-05-07 00:55 | 39.34004 | -77.96056 | 39892 ft | 371 kts | 250° |
| 2026-05-07 00:55 | 39.31683 | -78.02013 | 39895 ft | 371 kts | 250° |
| 2026-05-07 00:56 | 39.29332 | -78.07943 | 39899 ft | 370 kts | 249° |
| 2026-05-07 00:56 | 39.26973 | -78.13846 | 39905 ft | 370 kts | 249° |
| 2026-05-07 00:57 | 39.24604 | -78.19753 | 39907 ft | 370 kts | 249° |
| 2026-05-07 00:57 | 39.22243 | -78.25658 | 39908 ft | 370 kts | 250° |
| 2026-05-07 00:58 | 39.19906 | -78.31579 | 39911 ft | 370 kts | 249° |
| 2026-05-07 00:58 | 39.17544 | -78.37490 | 39912 ft | 371 kts | 249° |
| 2026-05-07 00:59 | 39.13990 | -78.46326 | 39916 ft | 372 kts | 249° |
| 2026-05-07 01:00 | 39.11622 | -78.52255 | 39911 ft | 372 kts | 250° |
| 2026-05-07 01:00 | 39.09247 | -78.58163 | 39912 ft | 372 kts | 249° |
| 2026-05-07 01:01 | 39.06845 | -78.64072 | 39913 ft | 373 kts | 249° |
| 2026-05-07 01:01 | 39.04433 | -78.69984 | 39916 ft | 373 kts | 249° |
| 2026-05-07 01:02 | 39.02034 | -78.75856 | 39918 ft | 373 kts | 249° |
| 2026-05-07 01:02 | 38.99620 | -78.81758 | 39920 ft | 373 kts | 249° |
| 2026-05-07 01:03 | 38.97211 | -78.87668 | 39913 ft | 372 kts | 249° |
| 2026-05-07 01:03 | 38.94820 | -78.93562 | 39911 ft | 372 kts | 249° |
| 2026-05-07 01:04 | 38.92403 | -78.99445 | 39914 ft | 372 kts | 249° |
| 2026-05-07 01:04 | 38.89996 | -79.05276 | 39914 ft | 372 kts | 249° |
| 2026-05-07 01:05 | 38.87575 | -79.11135 | 39913 ft | 372 kts | 249° |
| 2026-05-07 01:05 | 38.85150 | -79.17000 | 39913 ft | 371 kts | 249° |
| 2026-05-07 01:06 | 38.83313 | -79.23109 | 39917 ft | 366 kts | 258° |
| 2026-05-07 01:06 | 38.82104 | -79.29444 | 39919 ft | 367 kts | 261° |
| 2026-05-07 01:07 | 38.81049 | -79.35838 | 39924 ft | 366 kts | 260° |
| 2026-05-07 01:07 | 38.79938 | -79.42211 | 39931 ft | 365 kts | 260° |
| 2026-05-07 01:08 | 38.78795 | -79.48561 | 39930 ft | 365 kts | 260° |
| 2026-05-07 01:08 | 38.77639 | -79.54905 | 39941 ft | 365 kts | 260° |
| 2026-05-07 01:09 | 38.76477 | -79.61247 | 39949 ft | 365 kts | 259° |
| 2026-05-07 01:09 | 38.75353 | -79.67567 | 39955 ft | 365 kts | 260° |
| 2026-05-07 01:10 | 38.74213 | -79.73901 | 39960 ft | 365 kts | 260° |
| 2026-05-07 01:10 | 38.73076 | -79.80239 | 39962 ft | 365 kts | 260° |
| 2026-05-07 01:11 | 38.71928 | -79.86568 | 39967 ft | 365 kts | 259° |
| 2026-05-07 01:11 | 38.70753 | -79.92889 | 39971 ft | 365 kts | 259° |
| 2026-05-07 01:12 | 38.69569 | -79.99206 | 39972 ft | 365 kts | 259° |
| 2026-05-07 01:12 | 38.68383 | -80.05519 | 39972 ft | 364 kts | 259° |
| 2026-05-07 01:13 | 38.67199 | -80.11816 | 39973 ft | 363 kts | 259° |
| 2026-05-07 01:13 | 38.66024 | -80.18066 | 39974 ft | 363 kts | 259° |
| 2026-05-07 01:14 | 38.64835 | -80.24354 | 39974 ft | 363 kts | 259° |
| 2026-05-07 01:14 | 38.63637 | -80.30642 | 39969 ft | 364 kts | 259° |
| 2026-05-07 01:15 | 38.62434 | -80.36928 | 39966 ft | 364 kts | 259° |
| 2026-05-07 01:15 | 38.61227 | -80.43211 | 39964 ft | 364 kts | 259° |
| 2026-05-07 01:16 | 38.60017 | -80.49493 | 39963 ft | 363 kts | 259° |
| 2026-05-07 01:16 | 38.58812 | -80.55725 | 39962 ft | 364 kts | 259° |
| 2026-05-07 01:17 | 38.57610 | -80.62004 | 39961 ft | 363 kts | 259° |
| 2026-05-07 01:17 | 38.56438 | -80.68288 | 39961 ft | 364 kts | 259° |
| 2026-05-07 01:18 | 38.55242 | -80.74575 | 39961 ft | 364 kts | 259° |
| 2026-05-07 01:18 | 38.54034 | -80.80850 | 39962 ft | 364 kts | 258° |
| 2026-05-07 01:19 | 38.52819 | -80.87123 | 39964 ft | 364 kts | 258° |
| 2026-05-07 01:19 | 38.51600 | -80.93392 | 39966 ft | 364 kts | 258° |
| 2026-05-07 01:20 | 38.50382 | -80.99629 | 39969 ft | 364 kts | 258° |
| 2026-05-07 01:20 | 38.49155 | -81.05895 | 39971 ft | 364 kts | 258° |
| 2026-05-07 01:21 | 38.47922 | -81.12170 | 39974 ft | 364 kts | 258° |
| 2026-05-07 01:21 | 38.46686 | -81.18446 | 39975 ft | 364 kts | 258° |
| 2026-05-07 01:22 | 38.45456 | -81.24663 | 39982 ft | 364 kts | 258° |
| 2026-05-07 01:22 | 38.44215 | -81.30924 | 39985 ft | 364 kts | 258° |
| 2026-05-07 01:23 | 38.42973 | -81.37181 | 39986 ft | 364 kts | 258° |
| 2026-05-07 01:23 | 38.41754 | -81.43457 | 39988 ft | 364 kts | 258° |
| 2026-05-07 01:24 | 38.40505 | -81.49706 | 39989 ft | 363 kts | 257° |
| 2026-05-07 01:24 | 38.39244 | -81.55945 | 39990 ft | 363 kts | 257° |
| 2026-05-07 01:25 | 38.37985 | -81.62147 | 39990 ft | 364 kts | 257° |
| 2026-05-07 01:25 | 38.36714 | -81.68398 | 39991 ft | 364 kts | 257° |
| 2026-05-07 01:26 | 38.35445 | -81.74641 | 39992 ft | 364 kts | 257° |
| 2026-05-07 01:26 | 38.34032 | -81.80841 | 39995 ft | 364 kts | 254° |
| 2026-05-07 01:27 | 38.32284 | -81.86901 | 39997 ft | 365 kts | 252° |
| 2026-05-07 01:27 | 38.30512 | -81.92954 | 40000 ft | 365 kts | 253° |
| 2026-05-07 01:28 | 38.28822 | -81.99045 | 39999 ft | 365 kts | 253° |
| 2026-05-07 01:28 | 38.27127 | -82.05101 | 40000 ft | 365 kts | 253° |
| 2026-05-07 01:29 | 38.25404 | -82.11185 | 40001 ft | 365 kts | 253° |
| 2026-05-07 01:29 | 38.23676 | -82.17265 | 40001 ft | 365 kts | 253° |
| 2026-05-07 01:30 | 38.21949 | -82.23332 | 40002 ft | 364 kts | 253° |
| 2026-05-07 01:30 | 38.20222 | -82.29395 | 40002 ft | 364 kts | 253° |
| 2026-05-07 01:31 | 38.18494 | -82.35458 | 40002 ft | 365 kts | 253° |
| 2026-05-07 01:31 | 38.16756 | -82.41515 | 40002 ft | 365 kts | 253° |
| 2026-05-07 01:32 | 38.15022 | -82.47536 | 40002 ft | 365 kts | 253° |
| 2026-05-07 01:32 | 38.13274 | -82.53590 | 40002 ft | 364 kts | 253° |
| 2026-05-07 01:33 | 38.11525 | -82.59632 | 40007 ft | 364 kts | 253° |
| 2026-05-07 01:33 | 38.09774 | -82.65664 | 40008 ft | 364 kts | 253° |
| 2026-05-07 01:34 | 38.08316 | -82.70680 | 40008 ft | 365 kts | 253° |
| 2026-05-07 01:34 | 38.06581 | -82.76732 | 40008 ft | 364 kts | 253° |
| 2026-05-07 01:35 | 38.04862 | -82.82777 | 40008 ft | 364 kts | 253° |
| 2026-05-07 01:35 | 38.02843 | -82.89781 | 40007 ft | 364 kts | 253° |
| 2026-05-07 01:36 | 38.01380 | -82.94826 | 40008 ft | 364 kts | 253° |
| 2026-05-07 01:36 | 37.99627 | -83.00846 | 40008 ft | 363 kts | 253° |
| 2026-05-07 01:37 | 37.97880 | -83.06828 | 40009 ft | 364 kts | 253° |
| 2026-05-07 01:37 | 37.96114 | -83.12858 | 40009 ft | 365 kts | 253° |
| 2026-05-07 01:38 | 37.94341 | -83.18897 | 40028 ft | 365 kts | 253° |
| 2026-05-07 01:38 | 37.92568 | -83.24924 | 40029 ft | 365 kts | 253° |
| 2026-05-07 01:39 | 37.90791 | -83.30950 | 40032 ft | 365 kts | 253° |
| 2026-05-07 01:39 | 37.89017 | -83.36954 | 40029 ft | 364 kts | 253° |
| 2026-05-07 01:40 | 37.87238 | -83.42960 | 40029 ft | 364 kts | 253° |
| 2026-05-07 01:40 | 37.85456 | -83.48962 | 40029 ft | 364 kts | 253° |
| 2026-05-07 01:41 | 37.83672 | -83.54961 | 40029 ft | 364 kts | 253° |
| 2026-05-07 01:41 | 37.81897 | -83.60915 | 40033 ft | 363 kts | 253° |
| 2026-05-07 01:42 | 37.80152 | -83.66757 | 40031 ft | 340 kts | 253° |
| 2026-05-07 01:42 | 37.79336 | -83.69485 | 40029 ft | 324 kts | 253° |
| 2026-05-07 01:42 | 37.78555 | -83.72093 | 40027 ft | 310 kts | 253° |
| 2026-05-07 01:42 | 37.77808 | -83.74584 | 40025 ft | 297 kts | 253° |
| 2026-05-07 01:43 | 37.77084 | -83.76999 | 40025 ft | 292 kts | 253° |
| 2026-05-07 01:43 | 37.76374 | -83.79418 | 40025 ft | 296 kts | 253° |
| 2026-05-07 01:43 | 37.75644 | -83.81894 | 40026 ft | 306 kts | 253° |
| 2026-05-07 01:44 | 37.74090 | -83.87080 | 40029 ft | 325 kts | 253° |
| 2026-05-07 01:44 | 37.72428 | -83.92569 | 39865 ft | 346 kts | 252° |
| 2026-05-07 01:44 | 37.71552 | -83.95453 | 39342 ft | 358 kts | 252° |
| 2026-05-07 01:45 | 37.70664 | -83.98376 | 38929 ft | 351 kts | 252° |
| 2026-05-07 01:45 | 37.69794 | -84.01234 | 38176 ft | 350 kts | 252° |
| 2026-05-07 01:45 | 37.68918 | -84.04111 | 37240 ft | 353 kts | 252° |
| 2026-05-07 01:45 | 37.68034 | -84.07010 | 36353 ft | 355 kts | 252° |
| 2026-05-07 01:46 | 37.67146 | -84.09926 | 35556 ft | 354 kts | 252° |
| 2026-05-07 01:46 | 37.66262 | -84.12827 | 34790 ft | 354 kts | 252° |
| 2026-05-07 01:46 | 37.65380 | -84.15723 | 34110 ft | 352 kts | 252° |
| 2026-05-07 01:46 | 37.64552 | -84.18600 | 33520 ft | 347 kts | 253° |
| 2026-05-07 01:47 | 37.63782 | -84.21535 | 32984 ft | 362 kts | 253° |
| 2026-05-07 01:47 | 37.63006 | -84.24628 | 32425 ft | 373 kts | 253° |
| 2026-05-07 01:47 | 37.62225 | -84.27730 | 31872 ft | 369 kts | 253° |
| 2026-05-07 01:47 | 37.61444 | -84.30785 | 31328 ft | 366 kts | 253° |
| 2026-05-07 01:48 | 37.60661 | -84.33820 | 30786 ft | 360 kts | 253° |
| 2026-05-07 01:48 | 37.59887 | -84.36799 | 30252 ft | 358 kts | 252° |
| 2026-05-07 01:48 | 37.59117 | -84.39754 | 29722 ft | 361 kts | 252° |
| 2026-05-07 01:48 | 37.58320 | -84.42799 | 29177 ft | 359 kts | 252° |
| 2026-05-07 01:49 | 37.57549 | -84.45746 | 28647 ft | 359 kts | 252° |
| 2026-05-07 01:49 | 37.56766 | -84.48728 | 28118 ft | 357 kts | 252° |
| 2026-05-07 01:49 | 37.55990 | -84.51686 | 27583 ft | 355 kts | 252° |
| 2026-05-07 01:49 | 37.55212 | -84.54652 | 27054 ft | 357 kts | 252° |
| 2026-05-07 01:50 | 37.54465 | -84.57616 | 26526 ft | 353 kts | 253° |
| 2026-05-07 01:50 | 37.53723 | -84.60563 | 25999 ft | 352 kts | 252° |
| 2026-05-07 01:50 | 37.52970 | -84.63490 | 25475 ft | 351 kts | 252° |
| 2026-05-07 01:50 | 37.52206 | -84.66410 | 24952 ft | 350 kts | 252° |
| 2026-05-07 01:51 | 37.51439 | -84.69315 | 24431 ft | 349 kts | 252° |
| 2026-05-07 01:51 | 37.50670 | -84.72216 | 23911 ft | 348 kts | 252° |
| 2026-05-07 01:51 | 37.49903 | -84.75104 | 23393 ft | 347 kts | 252° |
| 2026-05-07 01:51 | 37.49137 | -84.77986 | 22877 ft | 345 kts | 252° |
| 2026-05-07 01:52 | 37.48386 | -84.80811 | 22370 ft | 343 kts | 252° |
| 2026-05-07 01:52 | 37.47632 | -84.83643 | 21860 ft | 340 kts | 251° |
| 2026-05-07 01:52 | 37.46883 | -84.86457 | 21354 ft | 337 kts | 251° |
| 2026-05-07 01:52 | 37.46361 | -84.89313 | 20855 ft | 336 kts | 264° |
| 2026-05-07 01:53 | 37.46707 | -84.92242 | 20386 ft | 347 kts | 284° |
| 2026-05-07 01:53 | 37.47953 | -84.94944 | 20166 ft | 370 kts | 298° |
| 2026-05-07 01:53 | 37.49551 | -84.97465 | 19816 ft | 365 kts | 297° |
| 2026-05-07 01:53 | 37.51083 | -85.00010 | 19203 ft | 367 kts | 300° |
| 2026-05-07 01:54 | 37.52929 | -85.02298 | 18639 ft | 376 kts | 309° |
| 2026-05-07 01:54 | 37.55040 | -85.04272 | 18109 ft | 381 kts | 316° |
| 2026-05-07 01:54 | 37.57336 | -85.05960 | 17520 ft | 379 kts | 317° |
| 2026-05-07 01:54 | 37.59611 | -85.07625 | 16882 ft | 380 kts | 320° |
| 2026-05-07 01:55 | 37.62063 | -85.08983 | 16256 ft | 390 kts | 329° |
| 2026-05-07 01:55 | 37.64657 | -85.09990 | 15815 ft | 389 kts | 333° |
| 2026-05-07 01:55 | 37.67228 | -85.10922 | 15308 ft | 376 kts | 329° |
| 2026-05-07 01:55 | 37.69435 | -85.12483 | 14508 ft | 356 kts | 310° |
| 2026-05-07 01:56 | 37.70918 | -85.14814 | 13780 ft | 338 kts | 290° |
| 2026-05-07 01:56 | 37.71665 | -85.17567 | 13061 ft | 329 kts | 278° |
| 2026-05-07 01:56 | 37.72322 | -85.20305 | 12650 ft | 322 kts | 288° |
| 2026-05-07 01:56 | 37.73317 | -85.22694 | 12102 ft | 296 kts | 292° |
| 2026-05-07 01:57 | 37.74138 | -85.24950 | 11497 ft | 271 kts | 285° |
| 2026-05-07 01:57 | 37.74616 | -85.27214 | 11048 ft | 265 kts | 277° |
| 2026-05-07 01:57 | 37.74837 | -85.29509 | 10738 ft | 262 kts | 272° |
| 2026-05-07 01:57 | 37.74919 | -85.31797 | 10430 ft | 259 kts | 270° |
| 2026-05-07 01:58 | 37.74973 | -85.34068 | 10123 ft | 258 kts | 271° |
| 2026-05-07 01:58 | 37.75056 | -85.36327 | 9813 ft | 256 kts | 272° |
| 2026-05-07 01:58 | 37.75158 | -85.38563 | 9510 ft | 255 kts | 272° |
| 2026-05-07 01:58 | 37.75267 | -85.40796 | 9204 ft | 254 kts | 273° |
| 2026-05-07 01:59 | 37.75406 | -85.43020 | 8882 ft | 254 kts | 276° |
| 2026-05-07 01:59 | 37.75675 | -85.45223 | 8553 ft | 254 kts | 279° |
| 2026-05-07 01:59 | 37.76032 | -85.47416 | 8219 ft | 255 kts | 281° |
| 2026-05-07 01:59 | 37.76398 | -85.49585 | 7884 ft | 256 kts | 281° |
| 2026-05-07 02:00 | 37.76745 | -85.51794 | 7553 ft | 257 kts | 281° |
| 2026-05-07 02:00 | 37.77126 | -85.54001 | 7214 ft | 258 kts | 284° |
| 2026-05-07 02:00 | 37.77737 | -85.56131 | 6915 ft | 257 kts | 297° |
| 2026-05-07 02:00 | 37.78822 | -85.57904 | 6717 ft | 254 kts | 313° |
| 2026-05-07 02:01 | 37.80153 | -85.59350 | 6523 ft | 251 kts | 318° |
| 2026-05-07 02:01 | 37.81476 | -85.60802 | 6321 ft | 252 kts | 316° |
| 2026-05-07 02:01 | 37.82781 | -85.62283 | 6117 ft | 251 kts | 318° |
| 2026-05-07 02:01 | 37.84239 | -85.63492 | 5897 ft | 252 kts | 332° |
| 2026-05-07 02:02 | 37.85886 | -85.64233 | 5664 ft | 251 kts | 342° |
| 2026-05-07 02:02 | 37.87573 | -85.64775 | 5432 ft | 249 kts | 345° |
| 2026-05-07 02:02 | 37.89241 | -85.65262 | 5213 ft | 244 kts | 345° |
| 2026-05-07 02:02 | 37.90879 | -85.65764 | 4947 ft | 241 kts | 345° |
| 2026-05-07 02:03 | 37.92491 | -85.66277 | 4663 ft | 239 kts | 344° |
| 2026-05-07 02:03 | 37.94097 | -85.66797 | 4388 ft | 236 kts | 344° |
| 2026-05-07 02:03 | 37.95679 | -85.67312 | 4116 ft | 234 kts | 345° |
| 2026-05-07 02:03 | 37.97239 | -85.67822 | 3856 ft | 227 kts | 345° |
| 2026-05-07 02:04 | 37.98716 | -85.68305 | 3613 ft | 211 kts | 345° |
| 2026-05-07 02:04 | 38.00083 | -85.68753 | 3389 ft | 196 kts | 345° |
| 2026-05-07 02:04 | 38.01377 | -85.69179 | 3236 ft | 189 kts | 345° |
| 2026-05-07 02:04 | 38.02602 | -85.69581 | 3038 ft | 174 kts | 345° |
| 2026-05-07 02:05 | 38.03739 | -85.69954 | 2924 ft | 166 kts | 345° |
| 2026-05-07 02:05 | 38.04815 | -85.70307 | 2714 ft | 152 kts | 345° |
| 2026-05-07 02:05 | 38.05797 | -85.70630 | 2518 ft | 139 kts | 345° |
| 2026-05-07 02:05 | 38.06711 | -85.70931 | 2359 ft | 133 kts | 345° |
| 2026-05-07 02:06 | 38.07600 | -85.71223 | 2194 ft | 132 kts | 345° |
| 2026-05-07 02:06 | 38.08489 | -85.71515 | 1990 ft | 132 kts | 345° |
| 2026-05-07 02:06 | 38.09386 | -85.71810 | 1808 ft | 134 kts | 346° |
| 2026-05-07 02:06 | 38.10292 | -85.72108 | 1629 ft | 134 kts | 346° |
| 2026-05-07 02:07 | 38.11194 | -85.72405 | 1450 ft | 134 kts | 346° |
| 2026-05-07 02:07 | 38.12994 | -85.72998 | 1094 ft | 133 kts | 346° |
| 2026-05-07 02:07 | 38.13885 | -85.73291 | 914 ft | 136 kts | 346° |
| 2026-05-07 02:08 | 38.14808 | -85.73595 | 740 ft | 138 kts | 345° |
| 2026-05-07 02:08 | 38.15733 | -85.73900 | 560 ft | 137 kts | 345° |
| 2026-05-07 02:08 | 38.16604 | -85.74187 | 515 ft | 114 kts | 346° |
| 2026-05-07 02:08 | 38.17123 | -85.74358 | 515 ft | 29 kts | 345° |
| 2026-05-07 02:09 | 38.17302 | -85.74372 | 515 ft | 14 kts | 19° |
| 2026-05-07 02:09 | 38.17345 | -85.74350 | 515 ft | 0 kts | 27° |
| 2026-05-07 02:09 | 38.17363 | -85.74338 | 515 ft | 13 kts | 27° |
| 2026-05-07 02:10 | 38.17431 | -85.74210 | 515 ft | 20 kts | 75° |
| 2026-05-07 02:10 | 38.17430 | -85.74090 | 515 ft | 7 kts | 108° |
| 2026-05-07 02:10 | 38.17408 | -85.74019 | 515 ft | 10 kts | 128° |
| 2026-05-07 02:10 | 38.17375 | -85.73995 | 515 ft | 2 kts | 185° |
| 2026-05-07 02:11 | 38.17343 | -85.74008 | 515 ft | 4 kts | 202° |
| 2026-05-07 02:11 | 38.17334 | -85.74013 | 515 ft | 0 kts | 205° |